KEPH/EPH METAR and TAF weather

Enter ICAO airport designator
Station Type Date Time Source
KEPH METAR 2020/07/10 22:53 UTC NOAA

KEPH 102253Z AUTO 18011G18KT 10SM CLR 28/06 A3008 RMK AO2 SLP179 T02830061


Station Type Date Time Source
KEPH Decoded METAR 2020/07/10 22:53 UTC NOAA

EPHRATA MUNICIPAL AIRPORT, WA, United States (KEPH) 47-18N 119-31W 383M
Jul 10, 2020 - 06:53 PM EDT / 2020.07.10 2253 UTC
Wind: from the S (180 degrees) at 13 MPH (11 KT) gusting to 21 MPH (18 KT):0
Visibility: 10 mile(s):0
Sky conditions: clear
Temperature: 82.9 F (28.3 C)
Dew Point: 43.0 F (6.1 C)
Relative Humidity: 24%
Pressure (altimeter): 30.08 in. Hg (1018 hPa)
ob: KEPH 102253Z AUTO 18011G18KT 10SM CLR 28/06 A3008 RMK AO2 SLP179 T02830061
cycle: 23

Station Type Date Time Source
KEPH TAF UTC NOAA

Error!

Example: see airport list